Swedesboro, New Jersey
Current Conditions -  °F | °C
As of 10:54 AM on Saturday 20 Dec 2014 (Local Time) from KPHL Reporting Station
Overcast Overcast  
Wind Chill: 27°   Ceiling: 3000
Heat Index: 34°   Visibility: 10mi
Dew Point: 20°   Wind: 9mph
Humidity: 56%   Direction: 40°NE
Pressure: 30.31"   Gusts: NA
Location:  39.75°N, 75.31°W
Report Text: KPHL 201554Z 04008KT 10SM OVC030 01/M07 A3031 RMK AO2 SLP263 T00111067
Loading
Personal Weather Stations






























Interactive Weather Map New forecast layout! Learn more

10-Day Weather Forecast

Advertisements
Track Severe Weather on mobile